createdAt,value
2023-12-26T00:00:58.999Z,0.70
2023-12-26T00:03:25.681Z,0.50
2023-12-26T00:05:55.128Z,0.50
2023-12-26T00:08:21.797Z,0.50
2023-12-26T00:10:48.221Z,0.40
2023-12-26T00:13:14.678Z,0.50
2023-12-26T00:15:42.919Z,0.52
2023-12-26T00:18:09.541Z,0.40
2023-12-26T00:20:40.979Z,0.40
2023-12-26T00:23:07.612Z,0.50
2023-12-26T00:25:34.031Z,0.63
2023-12-26T00:28:00.492Z,0.50
2023-12-26T00:30:27.134Z,0.77
2023-12-26T00:32:54.428Z,0.40
2023-12-26T00:35:21.154Z,0.50
2023-12-26T00:37:47.608Z,0.40
2023-12-26T00:40:14.455Z,0.40
2023-12-26T00:42:41.170Z,0.30
2023-12-26T00:45:08.316Z,0.50
2023-12-26T00:47:35.367Z,0.40
2023-12-26T00:50:02.056Z,0.40
2023-12-26T00:52:28.838Z,0.40
2023-12-26T00:54:55.358Z,0.50
2023-12-26T00:57:21.806Z,0.40
2023-12-26T00:59:48.353Z,0.30
2023-12-26T01:02:14.867Z,0.40
2023-12-26T01:04:41.432Z,0.40
2023-12-26T01:07:09.925Z,0.40
2023-12-26T01:09:36.393Z,0.50
2023-12-26T01:12:03.109Z,0.30
2023-12-26T01:14:30.908Z,0.32
2023-12-26T01:16:58.903Z,0.40
2023-12-26T01:19:25.463Z,0.50
2023-12-26T01:21:52.111Z,0.50
2023-12-26T01:24:18.574Z,0.47
2023-12-26T01:26:45.501Z,0.30
2023-12-26T01:29:12.094Z,0.32
2023-12-26T01:31:38.529Z,0.35
2023-12-26T01:34:05.295Z,0.40
2023-12-26T01:36:31.913Z,0.35
2023-12-26T01:38:58.481Z,0.50
2023-12-26T01:41:25.302Z,0.30
2023-12-26T01:43:51.831Z,0.38
2023-12-26T01:46:18.770Z,0.32
2023-12-26T01:48:46.952Z,0.32
2023-12-26T01:51:15.694Z,0.40
2023-12-26T01:53:42.900Z,0.40
2023-12-26T01:56:10.173Z,0.30
2023-12-26T01:58:37.422Z,0.40
2023-12-26T02:01:06.932Z,0.40
2023-12-26T02:03:34.222Z,0.30
2023-12-26T02:06:01.678Z,0.40
2023-12-26T02:08:29.034Z,0.52
2023-12-26T02:10:55.591Z,0.50
2023-12-26T02:13:22.420Z,0.40
2023-12-26T02:15:49.590Z,0.47
2023-12-26T02:18:17.169Z,0.50
2023-12-26T02:20:43.735Z,0.47
2023-12-26T02:23:10.244Z,0.50
2023-12-26T02:25:36.667Z,0.55
2023-12-26T02:28:04.276Z,0.50
2023-12-26T02:30:32.283Z,0.52
2023-12-26T02:33:00.704Z,0.77
2023-12-26T02:35:28.506Z,0.60
2023-12-26T02:37:55.444Z,0.52
2023-12-26T02:40:21.981Z,0.70
2023-12-26T02:42:48.483Z,0.70
2023-12-26T02:45:16.041Z,0.70
2023-12-26T02:47:42.726Z,0.90
2023-12-26T02:50:09.383Z,0.90
2023-12-26T02:52:35.929Z,0.95
2023-12-26T02:55:02.447Z,0.82
2023-12-26T02:57:28.927Z,1.00
2023-12-26T02:59:55.392Z,1.20
2023-12-26T03:02:21.846Z,1.10
2023-12-26T03:04:48.633Z,1.05
2023-12-26T03:07:15.194Z,1.42
2023-12-26T03:09:41.648Z,1.55
2023-12-26T03:12:08.207Z,1.67
2023-12-26T03:14:34.697Z,1.10
2023-12-26T03:17:01.181Z,1.20
2023-12-26T03:19:27.888Z,1.10
2023-12-26T03:21:54.425Z,1.27
2023-12-26T03:24:20.857Z,1.60
2023-12-26T03:26:47.428Z,1.42
2023-12-26T03:29:13.926Z,1.85
2023-12-26T03:31:45.110Z,1.70
2023-12-26T03:34:12.478Z,1.70
2023-12-26T03:36:50.245Z,1.98
2023-12-26T03:39:16.787Z,1.73
2023-12-26T03:41:45.263Z,1.67
2023-12-26T03:44:11.816Z,1.65
2023-12-26T03:46:38.288Z,2.05
2023-12-26T03:49:04.836Z,2.00
2023-12-26T03:51:31.353Z,1.92
2023-12-26T03:53:58.020Z,2.10
2023-12-26T03:56:24.550Z,2.17
2023-12-26T03:58:51.148Z,2.35
2023-12-26T04:01:17.661Z,2.03
2023-12-26T04:03:44.274Z,1.65
2023-12-26T04:06:11.250Z,1.65
2023-12-26T04:08:37.759Z,1.77
2023-12-26T04:11:05.026Z,2.05
2023-12-26T04:13:31.826Z,2.13
2023-12-26T04:15:58.302Z,2.50
2023-12-26T04:18:24.926Z,2.08
2023-12-26T04:20:51.535Z,1.90
2023-12-26T04:23:18.054Z,2.20
2023-12-26T04:25:44.497Z,1.80
2023-12-26T04:28:11.618Z,2.03
2023-12-26T04:30:41.068Z,1.63
2023-12-26T04:33:09.216Z,2.30
2023-12-26T04:35:35.851Z,2.70
2023-12-26T04:38:02.425Z,2.25
2023-12-26T04:40:29.412Z,2.22
2023-12-26T04:42:56.061Z,2.75
2023-12-26T04:45:22.788Z,2.00
2023-12-26T04:47:49.384Z,2.22
2023-12-26T04:50:16.129Z,2.03
2023-12-26T04:52:42.665Z,2.40
2023-12-26T04:55:09.688Z,2.30
2023-12-26T04:57:36.248Z,2.50
2023-12-26T05:00:12.453Z,2.10
2023-12-26T05:02:39.865Z,2.10
2023-12-26T05:05:08.467Z,1.88
2023-12-26T05:07:41.498Z,2.63
2023-12-26T05:10:16.860Z,2.33
2023-12-26T05:13:22.621Z,2.00
2023-12-26T05:15:50.052Z,2.33
2023-12-26T05:18:16.785Z,2.05
2023-12-26T05:20:43.653Z,2.67
2023-12-26T05:23:10.115Z,2.00
2023-12-26T05:25:36.531Z,1.80
2023-12-26T05:28:03.335Z,2.25
2023-12-26T05:30:30.045Z,2.40
2023-12-26T05:32:56.952Z,2.53
2023-12-26T05:35:25.190Z,2.28
2023-12-26T05:37:51.696Z,2.13
2023-12-26T05:40:19.593Z,2.20
2023-12-26T05:42:52.594Z,2.33
2023-12-26T05:45:20.535Z,2.45
2023-12-26T05:47:47.250Z,2.40
2023-12-26T05:50:13.997Z,2.50
2023-12-26T05:52:40.637Z,2.13
2023-12-26T05:55:15.620Z,2.67
2023-12-26T05:57:42.329Z,1.70
2023-12-26T06:00:10.720Z,2.03
2023-12-26T06:02:37.379Z,2.15
2023-12-26T06:05:04.389Z,2.65
2023-12-26T06:07:31.156Z,2.08
2023-12-26T06:09:57.730Z,2.50
2023-12-26T06:12:24.285Z,2.00
2023-12-26T06:14:54.724Z,2.00
2023-12-26T06:17:23.228Z,2.45
2023-12-26T06:19:57.697Z,1.88
2023-12-26T06:25:36.553Z,2.05
2023-12-26T06:28:06.045Z,1.77
2023-12-26T06:30:32.993Z,2.25
2023-12-26T06:33:00.045Z,1.88
2023-12-26T06:35:32.890Z,2.63
2023-12-26T06:37:59.429Z,2.33
2023-12-26T06:40:25.893Z,2.15
2023-12-26T06:42:54.204Z,2.10
2023-12-26T06:45:20.949Z,2.25
2023-12-26T06:48:00.837Z,2.30
2023-12-26T06:50:27.672Z,1.98
2023-12-26T06:52:56.897Z,2.10
2023-12-26T06:55:23.548Z,2.33
2023-12-26T06:57:50.053Z,2.00
2023-12-26T07:00:19.053Z,2.22
2023-12-26T07:02:45.686Z,2.22
2023-12-26T07:05:13.945Z,1.85
2023-12-26T07:07:40.493Z,2.08
2023-12-26T07:10:15.973Z,2.08
2023-12-26T07:12:42.509Z,2.40
2023-12-26T07:18:56.423Z,1.98
2023-12-26T07:21:25.721Z,2.03
2023-12-26T07:23:52.217Z,2.70
2023-12-26T07:26:18.829Z,2.00
2023-12-26T07:28:45.309Z,2.53
2023-12-26T07:31:21.596Z,2.20
2023-12-26T07:33:48.909Z,2.20
2023-12-26T07:36:15.999Z,2.13
2023-12-26T07:38:43.045Z,1.75
2023-12-26T07:41:09.831Z,2.65
2023-12-26T07:43:36.428Z,2.40
2023-12-26T07:46:02.952Z,2.15
2023-12-26T07:48:29.998Z,2.10
2023-12-26T07:50:56.558Z,2.47
2023-12-26T07:53:23.800Z,2.15
2023-12-26T07:55:50.310Z,2.45
2023-12-26T07:58:17.838Z,2.47
2023-12-26T08:00:45.328Z,2.40
2023-12-26T08:03:16.678Z,2.47
2023-12-26T08:05:44.208Z,2.30
2023-12-26T08:08:11.950Z,2.03
2023-12-26T08:10:38.929Z,1.77
2023-12-26T08:13:05.511Z,1.92
2023-12-26T08:15:31.922Z,1.92
2023-12-26T08:17:58.541Z,2.40
2023-12-26T08:20:25.229Z,2.58
2023-12-26T08:22:51.739Z,2.10
2023-12-26T08:25:20.075Z,1.75
2023-12-26T08:27:46.873Z,2.60
2023-12-26T08:30:13.940Z,1.95
2023-12-26T08:32:40.652Z,1.75
2023-12-26T08:35:08.440Z,2.40
2023-12-26T08:37:35.106Z,2.38
2023-12-26T08:40:01.550Z,1.70
2023-12-26T08:42:28.116Z,1.73
2023-12-26T08:44:54.573Z,1.60
2023-12-26T08:47:21.104Z,1.65
2023-12-26T08:49:47.623Z,1.98
2023-12-26T08:52:17.160Z,2.10
2023-12-26T08:54:44.383Z,1.85
2023-12-26T08:57:10.950Z,1.67
2023-12-26T08:59:38.044Z,2.00
2023-12-26T09:02:04.613Z,1.90
2023-12-26T09:04:32.015Z,2.38
2023-12-26T09:06:58.877Z,1.60
2023-12-26T09:09:27.366Z,2.00
2023-12-26T09:11:56.173Z,2.35
2023-12-26T09:14:23.073Z,2.22
2023-12-26T09:16:49.526Z,2.08
2023-12-26T09:19:16.706Z,3.40
2023-12-26T09:21:45.031Z,2.22
2023-12-26T09:24:11.476Z,3.80
2023-12-26T09:26:38.008Z,2.80
2023-12-26T09:29:04.471Z,2.28
2023-12-26T09:31:31.125Z,3.92
2023-12-26T09:33:57.708Z,2.00
2023-12-26T09:36:26.102Z,3.40
2023-12-26T09:38:52.812Z,3.80
2023-12-26T09:41:23.725Z,2.38
2023-12-26T09:43:50.751Z,1.92
2023-12-26T09:46:17.223Z,2.00
2023-12-26T09:48:43.822Z,2.03
2023-12-26T09:51:15.983Z,2.10
2023-12-26T09:53:46.234Z,1.80
2023-12-26T09:56:13.097Z,3.00
2023-12-26T09:58:44.315Z,2.60
2023-12-26T10:01:14.282Z,1.67
2023-12-26T10:03:43.109Z,1.75
2023-12-26T10:06:09.955Z,1.50
2023-12-26T10:08:36.430Z,1.60
2023-12-26T10:11:02.874Z,1.48
2023-12-26T10:13:45.090Z,1.92
2023-12-26T10:16:12.916Z,1.60
2023-12-26T10:18:42.143Z,1.20
2023-12-26T10:21:08.926Z,2.38
2023-12-26T10:23:36.683Z,1.42
2023-12-26T10:26:03.550Z,1.80
2023-12-26T10:28:30.025Z,1.40
2023-12-26T10:30:57.634Z,2.15
2023-12-26T10:33:28.855Z,1.67
2023-12-26T10:36:09.085Z,1.73
2023-12-26T10:38:35.855Z,3.50
2023-12-26T10:41:25.412Z,1.65
2023-12-26T10:43:57.640Z,1.90
2023-12-26T10:46:24.140Z,2.72
2023-12-26T10:48:54.093Z,2.13
2023-12-26T10:51:24.058Z,1.80
2023-12-26T10:54:04.283Z,1.58
2023-12-26T10:56:32.904Z,2.00
2023-12-26T10:58:59.711Z,2.00
2023-12-26T11:02:22.246Z,1.73
2023-12-26T11:05:45.241Z,1.80
2023-12-26T11:09:08.596Z,1.50
2023-12-26T11:12:31.981Z,1.60
2023-12-26T11:15:54.837Z,1.90
2023-12-26T11:19:17.963Z,1.52
2023-12-26T11:22:40.937Z,1.45
2023-12-26T11:26:03.982Z,1.60
2023-12-26T11:29:26.756Z,2.17
2023-12-26T11:32:49.844Z,1.92
2023-12-26T11:36:13.182Z,1.35
2023-12-26T11:39:36.397Z,1.52
2023-12-26T11:42:59.449Z,1.60
2023-12-26T11:46:22.313Z,4.20
2023-12-26T11:49:45.538Z,2.22
2023-12-26T11:53:08.395Z,2.33
2023-12-26T11:56:31.380Z,1.20
2023-12-26T11:59:55.226Z,1.00
2023-12-26T12:03:18.111Z,1.00
2023-12-26T12:06:41.299Z,1.10
2023-12-26T12:10:04.271Z,0.88
2023-12-26T12:13:27.479Z,0.80
2023-12-26T12:16:50.670Z,1.10
2023-12-26T12:20:13.385Z,0.90
2023-12-26T12:23:38.542Z,0.80
2023-12-26T12:27:01.933Z,1.00
2023-12-26T12:30:25.094Z,1.17
2023-12-26T12:33:48.144Z,0.98
2023-12-26T12:37:11.054Z,0.82
2023-12-26T12:40:34.098Z,0.70
2023-12-26T12:43:57.142Z,1.00
2023-12-26T12:47:20.346Z,1.10
2023-12-26T12:50:44.159Z,1.08
2023-12-26T12:54:06.844Z,0.90
2023-12-26T12:57:29.933Z,0.70
2023-12-26T13:00:52.934Z,0.80
2023-12-26T13:04:16.108Z,0.82
2023-12-26T13:07:40.072Z,0.90
2023-12-26T13:11:03.023Z,1.02
2023-12-26T13:14:26.417Z,1.35
2023-12-26T13:17:49.549Z,1.10
2023-12-26T13:21:12.652Z,1.10
2023-12-26T13:24:35.831Z,1.20
2023-12-26T13:27:58.435Z,1.27
2023-12-26T13:31:21.197Z,0.98
2023-12-26T13:34:43.945Z,0.80
2023-12-26T13:38:07.153Z,0.88
2023-12-26T13:41:30.088Z,0.68
2023-12-26T13:44:53.355Z,1.13
2023-12-26T13:48:16.641Z,0.88
2023-12-26T13:51:24.389Z,1.05
2023-12-26T13:54:29.214Z,1.38
2023-12-26T13:57:33.584Z,1.85
2023-12-26T14:00:37.745Z,1.00
2023-12-26T14:03:45.918Z,1.33
2023-12-26T14:06:52.911Z,1.45
2023-12-26T14:09:56.729Z,1.20
2023-12-26T14:13:00.631Z,1.58
2023-12-26T14:16:06.188Z,1.27
2023-12-26T14:19:10.194Z,1.33
2023-12-26T14:22:14.755Z,1.20
2023-12-26T14:25:18.727Z,1.23
2023-12-26T14:28:22.693Z,1.67
2023-12-26T14:31:28.859Z,1.35
2023-12-26T14:34:33.304Z,1.60
2023-12-26T14:37:37.704Z,2.47
2023-12-26T14:40:41.754Z,1.60
2023-12-26T14:43:45.435Z,1.55
2023-12-26T14:46:49.608Z,1.25
2023-12-26T14:49:53.909Z,2.13
2023-12-26T15:00:09.017Z,1.60
2023-12-26T15:02:37.646Z,2.35
2023-12-26T15:05:04.688Z,1.45
2023-12-26T15:07:31.581Z,1.50
2023-12-26T15:10:00.156Z,2.90
2023-12-26T15:12:26.675Z,2.63
2023-12-26T15:14:53.267Z,3.15
2023-12-26T15:17:19.731Z,13.05
2023-12-26T15:19:46.252Z,2.95
2023-12-26T15:22:12.861Z,3.13
2023-12-26T15:24:39.354Z,3.83
2023-12-26T15:27:06.316Z,2.45
2023-12-26T15:29:33.057Z,1.60
2023-12-26T15:31:59.844Z,2.10
2023-12-26T15:34:26.797Z,1.80
2023-12-26T15:36:53.393Z,2.20
2023-12-26T15:39:20.605Z,1.85
2023-12-26T15:41:48.220Z,1.60
2023-12-26T15:44:14.665Z,1.70
2023-12-26T15:46:41.209Z,1.40
2023-12-26T15:49:07.841Z,1.15
2023-12-26T15:51:35.558Z,1.40
2023-12-26T15:54:02.188Z,1.15
2023-12-26T15:56:29.824Z,2.15
2023-12-26T15:58:56.326Z,1.77
2023-12-26T16:01:23.048Z,2.50
2023-12-26T16:03:51.703Z,1.65
2023-12-26T16:06:25.300Z,1.70
2023-12-26T16:08:52.230Z,1.90
2023-12-26T16:11:19.322Z,1.98
2023-12-26T16:13:45.864Z,2.05
2023-12-26T16:16:12.439Z,1.60
2023-12-26T16:18:42.342Z,1.88
2023-12-26T16:21:09.416Z,1.60
2023-12-26T16:23:36.209Z,1.40
2023-12-26T16:26:06.649Z,1.88
2023-12-26T16:28:33.952Z,1.85
2023-12-26T16:31:06.020Z,1.73
2023-12-26T16:33:34.035Z,2.38
2023-12-26T16:36:02.319Z,2.30
2023-12-26T16:38:28.829Z,2.25
2023-12-26T16:40:56.708Z,1.70
2023-12-26T16:43:23.292Z,1.90
2023-12-26T16:45:49.981Z,1.92
2023-12-26T16:48:16.711Z,2.15
2023-12-26T16:50:43.272Z,2.33
2023-12-26T16:53:09.847Z,2.00
2023-12-26T16:55:36.604Z,1.90
2023-12-26T16:58:03.561Z,1.63
2023-12-26T17:00:30.107Z,2.03
2023-12-26T17:02:56.983Z,2.50
2023-12-26T17:05:23.800Z,2.92
2023-12-26T17:07:50.306Z,2.70
2023-12-26T17:10:16.761Z,3.10
2023-12-26T17:12:43.243Z,4.93
2023-12-26T17:15:11.267Z,3.28
2023-12-26T17:17:37.831Z,3.35
2023-12-26T17:20:04.925Z,2.42
2023-12-26T17:22:31.857Z,2.90
2023-12-26T17:25:07.532Z,2.10
2023-12-26T17:27:40.377Z,2.05
2023-12-26T17:30:07.742Z,2.38
2023-12-26T17:32:34.318Z,2.67
2023-12-26T17:35:02.035Z,3.35
2023-12-26T17:37:28.539Z,2.47
2023-12-26T17:39:55.637Z,2.58
2023-12-26T17:42:23.195Z,2.45
2023-12-26T17:44:49.740Z,2.88
2023-12-26T17:47:16.261Z,2.90
2023-12-26T17:49:42.898Z,3.30
2023-12-26T17:52:09.721Z,3.15
2023-12-26T17:54:36.332Z,2.92
2023-12-26T17:57:02.834Z,2.60
2023-12-26T17:59:29.488Z,2.33
2023-12-26T18:01:55.972Z,2.15
2023-12-26T18:04:22.562Z,2.90
2023-12-26T18:06:50.530Z,2.70
2023-12-26T18:09:17.524Z,2.78
2023-12-26T18:11:44.124Z,3.47
2023-12-26T18:14:11.096Z,3.08
2023-12-26T18:16:43.252Z,2.60
2023-12-26T18:19:10.211Z,3.60
2023-12-26T18:21:45.638Z,2.47
2023-12-26T18:24:12.643Z,3.15
2023-12-26T18:26:39.221Z,2.53
2023-12-26T18:29:05.812Z,2.65
2023-12-26T18:31:32.495Z,3.30
2023-12-26T18:33:59.081Z,3.00
2023-12-26T18:36:25.700Z,2.65
2023-12-26T18:38:52.248Z,2.45
2023-12-26T18:41:18.728Z,2.55
2023-12-26T18:43:45.208Z,3.20
2023-12-26T18:46:12.630Z,2.83
2023-12-26T18:48:39.486Z,2.80
2023-12-26T18:51:06.145Z,2.40
2023-12-26T18:53:32.614Z,2.35
2023-12-26T18:55:59.081Z,2.53
2023-12-26T18:58:25.633Z,2.63
2023-12-26T19:00:52.289Z,2.45
2023-12-26T19:03:19.035Z,2.53
2023-12-26T19:05:45.596Z,2.97
2023-12-26T19:08:12.088Z,2.70
2023-12-26T19:10:38.565Z,2.80
2023-12-26T19:13:05.656Z,2.88
2023-12-26T19:15:33.536Z,2.72
2023-12-26T19:18:00.358Z,3.15
2023-12-26T19:20:30.322Z,2.85
2023-12-26T19:22:58.093Z,2.85
2023-12-26T19:25:24.570Z,3.45
2023-12-26T19:27:50.978Z,2.33
2023-12-26T19:30:17.488Z,2.40
2023-12-26T19:32:44.039Z,2.22
2023-12-26T19:35:10.575Z,4.38
2023-12-26T19:37:38.704Z,4.47
2023-12-26T19:40:06.448Z,3.85
2023-12-26T19:42:33.087Z,7.57
2023-12-26T19:44:59.690Z,7.13
2023-12-26T19:47:26.353Z,5.50
2023-12-26T19:49:53.096Z,5.65
2023-12-26T19:52:19.568Z,5.32
2023-12-26T19:54:46.103Z,6.50
2023-12-26T19:57:14.012Z,6.97
2023-12-26T19:59:40.730Z,7.43
2023-12-26T20:02:07.625Z,6.97
2023-12-26T20:04:39.053Z,6.20
2023-12-26T20:07:06.574Z,6.05
2023-12-26T20:09:33.498Z,4.78
2023-12-26T20:12:00.352Z,5.10
2023-12-26T20:14:27.041Z,4.65
2023-12-26T20:16:53.551Z,10.82
2023-12-26T20:19:20.862Z,7.32
2023-12-26T20:21:48.262Z,6.88
2023-12-26T20:24:15.572Z,5.47
2023-12-26T20:26:49.331Z,5.72
2023-12-26T20:29:17.393Z,4.93
2023-12-26T20:31:45.193Z,6.25
2023-12-26T20:34:12.081Z,5.53
2023-12-26T20:36:42.020Z,5.10
2023-12-26T20:39:09.174Z,4.70
2023-12-26T20:41:35.936Z,5.05
2023-12-26T20:44:03.380Z,3.90
2023-12-26T20:46:29.743Z,4.15
2023-12-26T20:48:56.419Z,5.57
2023-12-26T20:51:23.009Z,4.53
2023-12-26T20:53:51.091Z,4.32
2023-12-26T20:56:18.905Z,4.03
2023-12-26T20:58:46.677Z,4.57
2023-12-26T21:01:17.388Z,5.60
2023-12-26T21:03:44.097Z,4.95
2023-12-26T21:06:16.898Z,4.82
2023-12-26T21:08:43.423Z,5.35
2023-12-26T21:11:10.018Z,4.82
2023-12-26T21:13:37.947Z,6.00
2023-12-26T21:16:04.754Z,5.88
2023-12-26T21:18:33.806Z,5.60
2023-12-26T21:21:00.455Z,5.15
2023-12-26T21:23:26.927Z,4.95
2023-12-26T21:25:53.362Z,5.57
2023-12-26T21:28:19.745Z,5.78
2023-12-26T21:30:46.229Z,5.88
2023-12-26T21:33:12.893Z,5.20
2023-12-26T21:35:39.466Z,4.57
2023-12-26T21:38:05.845Z,4.60
2023-12-26T21:40:32.346Z,3.97
2023-12-26T21:42:58.736Z,3.97
2023-12-26T21:45:25.240Z,5.38
2023-12-26T21:47:53.044Z,4.50
2023-12-26T21:50:22.675Z,4.20
2023-12-26T21:52:49.193Z,4.30
2023-12-26T21:55:15.688Z,4.07
2023-12-26T21:57:42.127Z,3.80
2023-12-26T22:00:09.746Z,3.88
2023-12-26T22:02:37.865Z,4.32
2023-12-26T22:05:06.291Z,3.53
2023-12-26T22:07:32.764Z,2.85
2023-12-26T22:09:59.200Z,3.55
2023-12-26T22:12:25.682Z,3.38
2023-12-26T22:14:52.277Z,3.55
2023-12-26T22:17:18.732Z,3.55
2023-12-26T22:19:45.259Z,2.83
2023-12-26T22:22:11.990Z,3.15
2023-12-26T22:24:41.375Z,3.10
2023-12-26T22:27:07.865Z,3.30
2023-12-26T22:29:34.401Z,3.13
2023-12-26T22:32:00.855Z,3.38
2023-12-26T22:34:27.479Z,3.65
2023-12-26T22:36:53.919Z,3.22
2023-12-26T22:39:20.415Z,3.08
2023-12-26T22:41:47.188Z,3.28
2023-12-26T22:44:15.776Z,4.10
2023-12-26T22:46:42.317Z,2.83
2023-12-26T22:49:08.888Z,3.33
2023-12-26T22:51:36.521Z,4.10
2023-12-26T22:54:03.011Z,4.18
2023-12-26T22:56:29.510Z,4.15
2023-12-26T22:58:56.043Z,3.65
2023-12-26T23:01:22.575Z,3.05
2023-12-26T23:03:49.086Z,4.18
2023-12-26T23:06:15.756Z,3.15
2023-12-26T23:08:42.276Z,3.50
2023-12-26T23:11:08.784Z,3.55
2023-12-26T23:13:35.292Z,3.67
2023-12-26T23:16:06.356Z,3.50
2023-12-26T23:18:32.928Z,3.85
2023-12-26T23:20:59.447Z,2.67
2023-12-26T23:23:25.918Z,3.00
2023-12-26T23:25:52.925Z,3.05
2023-12-26T23:28:19.442Z,4.60
2023-12-26T23:30:45.921Z,4.97
2023-12-26T23:33:15.305Z,5.32
2023-12-26T23:35:43.262Z,6.80
2023-12-26T23:38:09.769Z,6.72
2023-12-26T23:40:36.325Z,7.88
2023-12-26T23:43:03.270Z,7.32
2023-12-26T23:45:29.919Z,5.72
2023-12-26T23:47:56.729Z,5.85
2023-12-26T23:50:28.941Z,6.05
2023-12-26T23:52:55.327Z,5.68
2023-12-26T23:55:21.800Z,5.15
2023-12-26T23:57:48.297Z,5.07
